Aérodrome :
LOGIN :

S'inscrire | Disclaimer

   EN    FR    IT 

 










Légende :    VFR   VFR Marginal   IFR   IFR Intensif   IFR Très Intensif
Visi : 
Plafond : 
>= 8 km
>= 3000ft
5 à 8 km
1000 à 3000 ft
1500m à 5 km
500 à 1000 ft
800 à 1500m
200 à 500 ft
< 800m
< 200 ft
Symboles :   Orages  Brouillard  Fortes neiges  Fortes précipitations  Vent > 20 kt
SIGMETs :   Divers  Orages  Givrage  Turbulence  Onde Orograph.  Cendres Volcan.






- Altitude de l'aérodrome : 1400 ft


LSME - Luzern Emmen

DERNIER METAR :
  • 191620Z AUTO 18005KT 120V230 9999NDV -SHRA FEW017 BKN060 OVC069 18/18 Q1018 RMK

METARs EXPIRÉS :
  • 191550Z AUTO 21004KT 160V230 9999NDV -RA FEW041 BKN067 BKN078 18/18 Q1018 RMK
  • 191520Z AUTO 17004KT 140V210 9999NDV FEW049 SCT083 BKN100 18/18 Q1018 RMK
  • 191450Z AUTO 19004KT 140V250 9999NDV FEW042 SCT110 19/18 Q1018 RMK
  • 191420Z AUTO 18004KT 140V210 9999NDV FEW009 SCT039 BKN048 18/18 Q1018 RERA RMK
  • 191350Z AUTO 19004KT 150V210 9999NDV -RA FEW019 BKN022 BKN100 18/18 Q1017 RERA RMK

Prévision TAF périmée.



MET'MAP, la Météo Aéronautique d'un coup d'oeil ! - Copyright ORBIFLY Décembre 2007 - Disclaimer

ORBIFLY MET'MAP TEAM :

Programmation & Développement : Alexandra Zaïnal
Sur une idée originale de : Baudouin d'Aumeries
Soutien technique & logistique : Manuel Goepfert
Assistance : Marc-Olivier Méhu




SOURCES & CREDITS :

   NOAA